METAR UND TAF INFORMATION
LDDU 241800Z 30004KT 270V330 CAVOK 25/19 Q1015 BECMG FM1900 02020KT

 FLUGHAFENKARTE

 RUNWAY INFORMATION
Runway 12 Runway length 10827 ft Runway width 148 ft
Runway elevation 519 ft Runway displaced threshold 488 ft Runway heading 118
Runway 30 Runway length 10827 ft Runway width 148 ft
Runway elevation 484 ft Runway displaced threshold 0 ft Runway heading 298

 AIRPORT FREQUENCIES
Type APP Name APP Frequency 123.6 MHZ
Type TWR Name TWR Frequency 129.5 MHZ

 AIRPORT NEAR NAVIGATION AIDS
Type NDB Name Dubrovnik Frequency 397 KHZ
Type VOR-DME Name Dubrovnik Frequency 115400 KHZ
Type NDB Name Dubrovnik Frequency 414 KHZ
Type NDB Name Kolocep Frequency 318 KHZ